Aviation Digital Data Service (ADDS)

Output produced by TAFs form (0223 UTC 25 April 2014)
found at http://aviationweather.gov/adds/tafs/
 
KLND 242341Z 2500/2524 24012G18KT P6SM FEW100 BKN200 
     FM250200 23008KT P6SM SCT120 BKN250 
     FM250700 VRB06KT P6SM BKN150 
     FM252000 22011KT P6SM BKN200